createdAt,value
2019-01-24T00:00:10.479Z,-5.10
2019-01-24T00:02:42.645Z,-5.10
2019-01-24T00:05:13.430Z,-5.10
2019-01-24T00:07:44.052Z,-5.10
2019-01-24T00:10:14.684Z,-5.00
2019-01-24T00:12:46.623Z,-5.00
2019-01-24T00:15:17.221Z,-5.10
2019-01-24T00:17:47.839Z,-5.10
2019-01-24T00:20:18.752Z,-5.10
2019-01-24T00:22:49.211Z,-5.10
2019-01-24T00:25:19.816Z,-5.10
2019-01-24T00:27:50.445Z,-5.10
2019-01-24T00:30:21.042Z,-5.10
2019-01-24T00:32:51.644Z,-5.10
2019-01-24T00:35:22.263Z,-5.10
2019-01-24T00:37:53.224Z,-5.20
2019-01-24T00:40:23.963Z,-5.10
2019-01-24T00:42:54.830Z,-5.20
2019-01-24T00:45:25.489Z,-5.20
2019-01-24T00:47:56.058Z,-5.10
2019-01-24T00:50:26.558Z,-5.20
2019-01-24T00:52:57.466Z,-5.20
2019-01-24T00:55:28.410Z,-5.10
2019-01-24T00:57:58.914Z,-5.10
2019-01-24T01:00:29.977Z,-5.10
2019-01-24T01:03:00.582Z,-5.10
2019-01-24T01:05:31.502Z,-5.00
2019-01-24T01:08:02.420Z,-5.10
2019-01-24T01:10:33.547Z,-5.10
2019-01-24T01:13:08.703Z,-5.10
2019-01-24T01:15:39.315Z,-5.10
2019-01-24T01:18:09.896Z,-5.10
2019-01-24T01:20:42.086Z,-5.10
2019-01-24T01:23:12.638Z,-5.10
2019-01-24T01:25:43.139Z,-5.00
2019-01-24T01:28:13.995Z,-5.10
2019-01-24T01:30:44.702Z,-5.10
2019-01-24T01:33:15.345Z,-5.20
2019-01-24T01:35:46.223Z,-5.20
2019-01-24T01:38:17.477Z,-5.20
2019-01-24T01:40:48.330Z,-5.20
2019-01-24T01:43:18.907Z,-5.20
2019-01-24T01:45:49.952Z,-5.10
2019-01-24T01:48:20.832Z,-5.10
2019-01-24T01:50:51.664Z,-5.10
2019-01-24T01:53:22.347Z,-5.10
2019-01-24T01:55:52.828Z,-5.10
2019-01-24T01:58:23.378Z,-5.00
2019-01-24T02:00:54.070Z,-5.00
2019-01-24T02:03:24.977Z,-5.00
2019-01-24T02:05:55.571Z,-5.10
2019-01-24T02:08:26.212Z,-5.00
2019-01-24T02:10:56.769Z,-5.00
2019-01-24T02:13:27.369Z,-5.00
2019-01-24T02:15:58.201Z,-5.00
2019-01-24T02:18:28.633Z,-5.00
2019-01-24T02:20:59.363Z,-5.10
2019-01-24T02:23:30.046Z,-5.10
2019-01-24T02:26:00.958Z,-5.10
2019-01-24T02:28:31.872Z,-5.20
2019-01-24T02:31:02.557Z,-5.10
2019-01-24T02:33:33.354Z,-5.20
2019-01-24T02:36:04.451Z,-5.20
2019-01-24T02:38:35.035Z,-5.20
2019-01-24T02:41:06.068Z,-5.20
2019-01-24T02:43:36.677Z,-5.20
2019-01-24T02:46:07.382Z,-5.20
2019-01-24T02:48:38.089Z,-5.30
2019-01-24T02:51:08.787Z,-5.40
2019-01-24T02:53:39.608Z,-5.40
2019-01-24T02:56:10.108Z,-5.40
2019-01-24T02:58:40.628Z,-5.30
2019-01-24T03:01:11.291Z,-5.40
2019-01-24T03:03:41.755Z,-5.40
2019-01-24T03:06:12.872Z,-5.40
2019-01-24T03:08:43.643Z,-5.40
2019-01-24T03:11:14.325Z,-5.30
2019-01-24T03:13:44.746Z,-5.30
2019-01-24T03:16:15.368Z,-5.30
2019-01-24T03:18:45.970Z,-5.30
2019-01-24T03:21:16.813Z,-5.30
2019-01-24T03:23:47.321Z,-5.30
2019-01-24T03:26:18.332Z,-5.20
2019-01-24T03:28:48.824Z,-5.30
2019-01-24T03:31:19.445Z,-5.40
2019-01-24T03:33:50.544Z,-5.40
2019-01-24T03:36:21.050Z,-5.40
2019-01-24T03:38:51.584Z,-5.30
2019-01-24T03:41:22.446Z,-5.30
2019-01-24T03:43:53.094Z,-5.30
2019-01-24T03:46:23.940Z,-5.40
2019-01-24T03:48:54.394Z,-5.40
2019-01-24T03:51:25.049Z,-5.30
2019-01-24T03:53:55.553Z,-5.30
2019-01-24T03:56:26.523Z,-5.30
2019-01-24T03:58:57.235Z,-5.40
2019-01-24T04:01:27.819Z,-5.40
2019-01-24T04:03:58.460Z,-5.40
2019-01-24T04:06:29.037Z,-5.30
2019-01-24T04:08:59.789Z,-5.30
2019-01-24T04:11:30.432Z,-5.40
2019-01-24T04:14:00.919Z,-5.40
2019-01-24T04:16:31.571Z,-5.40
2019-01-24T04:19:02.222Z,-5.50
2019-01-24T04:21:32.664Z,-5.50
2019-01-24T04:24:03.356Z,-5.40
2019-01-24T04:26:34.005Z,-5.30
2019-01-24T04:29:04.812Z,-5.40
2019-01-24T04:31:35.352Z,-5.30
2019-01-24T04:34:06.297Z,-5.40
2019-01-24T04:36:36.867Z,-5.40
2019-01-24T04:39:08.652Z,-5.30
2019-01-24T04:41:39.111Z,-5.30
2019-01-24T04:44:09.783Z,-5.30
2019-01-24T04:46:40.220Z,-5.20
2019-01-24T04:49:10.899Z,-5.30
2019-01-24T04:51:41.711Z,-5.30
2019-01-24T04:54:12.529Z,-5.30
2019-01-24T04:56:43.160Z,-5.30
2019-01-24T04:59:14.687Z,-5.30
2019-01-24T05:01:45.423Z,-5.40
2019-01-24T05:04:16.295Z,-5.40
2019-01-24T05:06:47.019Z,-5.50
2019-01-24T05:09:17.928Z,-5.50
2019-01-24T05:11:48.815Z,-5.40
2019-01-24T05:14:19.947Z,-5.40
2019-01-24T05:16:50.661Z,-5.40
2019-01-24T05:19:21.756Z,-5.50
2019-01-24T05:21:52.317Z,-5.60
2019-01-24T05:24:23.296Z,-5.50
2019-01-24T05:26:53.784Z,-5.50
2019-01-24T05:29:24.668Z,-5.50
2019-01-24T05:31:55.494Z,-5.60
2019-01-24T05:34:26.389Z,-5.60
2019-01-24T05:36:57.013Z,-5.60
2019-01-24T05:39:27.978Z,-5.60
2019-01-24T05:41:58.577Z,-5.60
2019-01-24T05:44:29.635Z,-5.60
2019-01-24T05:47:00.527Z,-5.60
2019-01-24T05:49:31.625Z,-5.60
2019-01-24T05:52:02.238Z,-5.60
2019-01-24T05:54:33.009Z,-5.50
2019-01-24T05:57:03.871Z,-5.60
2019-01-24T05:59:34.533Z,-5.60
2019-01-24T06:02:05.438Z,-5.60
2019-01-24T06:04:35.937Z,-5.50
2019-01-24T06:07:06.840Z,-5.60
2019-01-24T06:09:37.400Z,-5.60
2019-01-24T06:12:08.152Z,-5.60
2019-01-24T06:14:38.618Z,-5.60
2019-01-24T06:17:09.502Z,-5.60
2019-01-24T06:19:40.024Z,-5.60
2019-01-24T06:22:11.042Z,-5.70
2019-01-24T06:24:42.246Z,-5.60
2019-01-24T06:27:12.769Z,-5.70
2019-01-24T06:29:43.217Z,-5.60
2019-01-24T06:32:13.951Z,-5.60
2019-01-24T06:34:44.435Z,-5.70
2019-01-24T06:37:15.222Z,-5.70
2019-01-24T06:39:45.749Z,-5.70
2019-01-24T06:42:16.892Z,-5.70
2019-01-24T06:44:47.651Z,-5.80
2019-01-24T06:47:18.422Z,-5.70
2019-01-24T06:49:49.097Z,-5.70
2019-01-24T06:52:21.355Z,-5.60
2019-01-24T06:54:52.077Z,-5.60
2019-01-24T06:57:23.084Z,-5.60
2019-01-24T06:59:54.262Z,-5.60
2019-01-24T07:02:26.508Z,-5.60
2019-01-24T07:04:58.990Z,-5.60
2019-01-24T07:07:29.620Z,-5.70
2019-01-24T07:10:00.063Z,-5.60
2019-01-24T07:12:31.172Z,-5.60
2019-01-24T07:15:03.734Z,-5.50
2019-01-24T07:17:34.686Z,-5.50
2019-01-24T07:20:06.596Z,-5.60
2019-01-24T07:22:37.247Z,-5.60
2019-01-24T07:25:09.877Z,-5.60
2019-01-24T07:27:40.565Z,-5.60
2019-01-24T07:30:12.806Z,-5.60
2019-01-24T07:32:43.270Z,-5.60
2019-01-24T07:35:15.049Z,-5.60
2019-01-24T07:37:45.937Z,-5.60
2019-01-24T07:40:17.896Z,-5.50
2019-01-24T07:42:49.254Z,-5.50
2019-01-24T07:45:31.469Z,-5.50
2019-01-24T07:48:02.183Z,-5.50
2019-01-24T07:50:33.127Z,-5.50
2019-01-24T07:53:03.713Z,-5.40
2019-01-24T07:55:35.261Z,-5.50
2019-01-24T07:58:07.549Z,-5.50
2019-01-24T08:00:38.105Z,-5.50
2019-01-24T08:03:09.893Z,-5.60
2019-01-24T08:05:40.472Z,-5.60
2019-01-24T08:08:11.451Z,-5.60
2019-01-24T08:10:41.923Z,-5.60
2019-01-24T08:13:12.557Z,-5.60
2019-01-24T08:15:43.353Z,-5.60
2019-01-24T08:18:14.270Z,-5.60
2019-01-24T08:20:45.109Z,-5.60
2019-01-24T08:23:16.349Z,-5.60
2019-01-24T08:25:46.829Z,-5.50
2019-01-24T08:28:17.543Z,-5.60
2019-01-24T08:30:49.504Z,-5.60
2019-01-24T08:33:20.116Z,-5.50
2019-01-24T08:35:52.303Z,-5.50
2019-01-24T08:38:23.023Z,-5.50
2019-01-24T08:40:53.581Z,-5.60
2019-01-24T08:43:24.468Z,-5.60
2019-01-24T08:45:55.698Z,-5.60
2019-01-24T08:48:26.390Z,-5.50
2019-01-24T08:50:57.221Z,-5.50
2019-01-24T08:53:28.354Z,-5.40
2019-01-24T08:55:59.294Z,-5.40
2019-01-24T08:58:30.070Z,-5.40
2019-01-24T09:01:01.130Z,-5.40
2019-01-24T09:03:31.988Z,-5.50
2019-01-24T09:06:02.945Z,-5.40
2019-01-24T09:08:34.084Z,-5.40
2019-01-24T09:11:04.922Z,-5.40
2019-01-24T09:13:35.865Z,-5.40
2019-01-24T09:16:06.955Z,-5.40
2019-01-24T09:18:37.589Z,-5.40
2019-01-24T09:21:09.792Z,-5.30
2019-01-24T09:23:40.722Z,-5.40
2019-01-24T09:26:11.599Z,-5.20
2019-01-24T09:28:42.237Z,-5.20
2019-01-24T09:31:15.174Z,-5.30
2019-01-24T09:33:46.117Z,-5.30
2019-01-24T09:36:16.641Z,-5.30
2019-01-24T09:38:47.477Z,-5.30
2019-01-24T09:41:18.177Z,-5.20
2019-01-24T09:43:48.755Z,-5.20
2019-01-24T09:46:19.252Z,-5.20
2019-01-24T09:48:49.851Z,-5.10
2019-01-24T09:51:23.190Z,-5.20
2019-01-24T09:53:53.876Z,-5.20
2019-01-24T09:56:24.833Z,-5.30
2019-01-24T09:58:55.748Z,-5.30
2019-01-24T10:01:26.386Z,-5.30
2019-01-24T10:03:57.460Z,-5.20
2019-01-24T10:06:28.576Z,-5.20
2019-01-24T10:08:59.379Z,-5.20
2019-01-24T10:11:29.889Z,-5.20
2019-01-24T10:14:00.629Z,-5.30
2019-01-24T10:16:31.335Z,-5.20
2019-01-24T10:19:02.148Z,-5.20
2019-01-24T10:21:32.893Z,-5.20
2019-01-24T10:24:06.739Z,-5.10
2019-01-24T10:26:37.354Z,-5.10
2019-01-24T10:29:08.364Z,-5.10
2019-01-24T10:31:38.922Z,-5.10
2019-01-24T10:34:09.666Z,-5.00
2019-01-24T10:36:43.163Z,-5.00
2019-01-24T10:39:12.633Z,-5.00
2019-01-24T10:41:43.366Z,-5.00
2019-01-24T10:44:13.981Z,-5.10
2019-01-24T10:46:44.554Z,-5.10
2019-01-24T10:49:15.362Z,-5.20
2019-01-24T10:51:46.329Z,-5.20
2019-01-24T10:54:17.185Z,-5.10
2019-01-24T10:56:47.957Z,-5.10
2019-01-24T10:59:18.672Z,-5.00
2019-01-24T11:01:49.777Z,-5.00
2019-01-24T11:04:20.622Z,-5.00
2019-01-24T11:06:51.444Z,-4.90
2019-01-24T11:09:21.965Z,-4.90
2019-01-24T11:11:52.672Z,-5.00
2019-01-24T11:14:23.266Z,-5.10
2019-01-24T11:16:54.383Z,-5.10
2019-01-24T11:19:24.851Z,-5.10
2019-01-24T11:21:55.655Z,-5.00
2019-01-24T11:24:26.143Z,-5.10
2019-01-24T11:26:56.743Z,-5.10
2019-01-24T11:29:27.449Z,-5.00
2019-01-24T11:31:58.196Z,-5.00
2019-01-24T11:34:28.844Z,-4.90
2019-01-24T11:36:59.625Z,-4.90
2019-01-24T11:39:30.168Z,-4.90
2019-01-24T11:42:01.336Z,-4.90
2019-01-24T11:44:32.214Z,-4.90
2019-01-24T11:47:03.079Z,-4.90
2019-01-24T11:49:33.754Z,-4.90
2019-01-24T11:52:04.695Z,-4.90
2019-01-24T11:54:35.292Z,-4.80
2019-01-24T11:57:06.051Z,-4.80
2019-01-24T11:59:37.561Z,-4.80
2019-01-24T12:02:08.150Z,-4.80
2019-01-24T12:04:39.026Z,-4.70
2019-01-24T12:07:09.751Z,-4.70
2019-01-24T12:09:40.269Z,-4.80
2019-01-24T12:12:10.824Z,-4.80
2019-01-24T12:14:41.587Z,-4.70
2019-01-24T12:17:12.156Z,-4.80
2019-01-24T12:19:42.913Z,-4.90
2019-01-24T12:22:13.411Z,-4.90
2019-01-24T12:24:44.145Z,-4.90
2019-01-24T12:27:14.639Z,-4.90
2019-01-24T12:29:45.177Z,-4.90
2019-01-24T12:32:16.880Z,-5.00
2019-01-24T12:34:47.437Z,-4.90
2019-01-24T12:37:18.281Z,-4.90
2019-01-24T12:39:49.189Z,-4.90
2019-01-24T12:42:19.675Z,-4.90
2019-01-24T12:44:50.418Z,-4.90
2019-01-24T12:47:21.153Z,-4.90
2019-01-24T12:49:51.905Z,-5.00
2019-01-24T12:52:22.561Z,-5.00
2019-01-24T12:54:53.183Z,-5.00
2019-01-24T12:57:24.006Z,-4.90
2019-01-24T12:59:54.745Z,-4.90
2019-01-24T13:02:25.847Z,-4.90
2019-01-24T13:04:56.661Z,-4.90
2019-01-24T13:07:27.487Z,-4.90
2019-01-24T13:09:58.307Z,-5.00
2019-01-24T13:12:29.076Z,-5.00
2019-01-24T13:14:59.594Z,-4.90
2019-01-24T13:17:30.518Z,-4.90
2019-01-24T13:20:01.452Z,-4.90
2019-01-24T13:22:32.408Z,-5.00
2019-01-24T13:25:03.087Z,-4.90
2019-01-24T13:27:33.890Z,-4.90
2019-01-24T13:30:05.999Z,-4.90
2019-01-24T13:32:36.558Z,-4.90
2019-01-24T13:35:07.499Z,-4.90
2019-01-24T13:37:38.240Z,-4.90
2019-01-24T13:40:10.747Z,-4.90
2019-01-24T13:42:41.553Z,-4.90
2019-01-24T13:45:14.486Z,-4.90
2019-01-24T13:47:45.844Z,-4.90
2019-01-24T13:50:17.236Z,-4.90
2019-01-24T13:52:48.012Z,-4.90
2019-01-24T13:55:18.827Z,-4.90
2019-01-24T13:57:49.542Z,-4.90
2019-01-24T14:00:22.562Z,-4.80
2019-01-24T14:03:00.017Z,-4.70
2019-01-24T14:05:30.982Z,-4.80
2019-01-24T14:08:01.649Z,-4.80
2019-01-24T14:10:32.574Z,-4.80
2019-01-24T14:13:03.469Z,-4.90
2019-01-24T14:15:34.360Z,-4.90
2019-01-24T14:18:05.994Z,-4.90
2019-01-24T14:20:37.854Z,-4.90
2019-01-24T14:23:08.652Z,-5.00
2019-01-24T14:25:39.551Z,-5.00
2019-01-24T14:28:10.342Z,-5.00
2019-01-24T14:30:41.160Z,-5.10
2019-01-24T14:33:11.960Z,-5.10
2019-01-24T14:35:42.629Z,-5.10
2019-01-24T14:38:13.242Z,-5.00
2019-01-24T14:40:43.784Z,-4.90
2019-01-24T14:43:14.463Z,-4.90
2019-01-24T14:45:45.331Z,-4.90
2019-01-24T14:48:16.108Z,-4.90
2019-01-24T14:50:46.861Z,-4.90
2019-01-24T14:53:17.451Z,-5.00
2019-01-24T14:55:48.044Z,-5.00
2019-01-24T14:58:19.299Z,-5.00
2019-01-24T15:00:53.704Z,-5.00
2019-01-24T15:03:24.323Z,-5.00
2019-01-24T15:05:54.923Z,-5.00
2019-01-24T15:08:25.760Z,-4.90
2019-01-24T15:10:56.703Z,-5.00
2019-01-24T15:13:28.458Z,-5.00
2019-01-24T15:15:59.233Z,-4.90
2019-01-24T15:18:29.854Z,-4.90
2019-01-24T15:21:00.486Z,-4.90
2019-01-24T15:23:31.395Z,-4.90
2019-01-24T15:26:02.287Z,-4.90
2019-01-24T15:28:33.215Z,-4.90
2019-01-24T15:31:03.979Z,-4.90
2019-01-24T15:33:34.529Z,-4.90
2019-01-24T15:36:05.240Z,-4.90
2019-01-24T15:38:35.774Z,-4.80
2019-01-24T15:41:06.666Z,-4.90
2019-01-24T15:43:37.418Z,-4.90
2019-01-24T15:46:08.340Z,-4.90
2019-01-24T15:48:42.836Z,-5.00
2019-01-24T15:51:11.896Z,-5.00
2019-01-24T15:53:42.868Z,-5.10
2019-01-24T15:56:14.904Z,-5.00
2019-01-24T15:58:45.363Z,-5.00
2019-01-24T16:01:16.071Z,-5.00
2019-01-24T16:03:46.642Z,-5.00
2019-01-24T16:06:17.265Z,-5.00
2019-01-24T16:08:47.850Z,-5.10
2019-01-24T16:11:18.545Z,-5.10
2019-01-24T16:13:49.323Z,-5.00
2019-01-24T16:16:20.278Z,-5.00
2019-01-24T16:18:51.212Z,-5.00
2019-01-24T16:21:21.977Z,-5.10
2019-01-24T16:23:52.756Z,-5.00
2019-01-24T16:26:23.725Z,-5.00
2019-01-24T16:28:54.580Z,-5.00
2019-01-24T16:31:25.325Z,-5.10
2019-01-24T16:33:56.181Z,-5.10
2019-01-24T16:36:26.950Z,-5.10
2019-01-24T16:38:57.937Z,-5.10
2019-01-24T16:41:28.849Z,-5.10
2019-01-24T16:43:59.476Z,-5.20
2019-01-24T16:46:30.414Z,-5.20
2019-01-24T16:49:00.924Z,-5.20
2019-01-24T16:51:32.081Z,-5.20
2019-01-24T16:54:02.663Z,-5.20
2019-01-24T16:56:33.414Z,-5.30
2019-01-24T16:59:04.111Z,-5.20
2019-01-24T17:01:34.876Z,-5.20
2019-01-24T17:04:06.045Z,-5.20
2019-01-24T17:06:36.796Z,-5.20
2019-01-24T17:09:10.908Z,-5.20
2019-01-24T17:11:41.847Z,-5.20
2019-01-24T17:14:12.842Z,-5.20
2019-01-24T17:16:43.464Z,-5.20
2019-01-24T17:19:14.018Z,-5.30
2019-01-24T17:21:44.935Z,-5.30
2019-01-24T17:24:16.745Z,-5.20
2019-01-24T17:26:47.520Z,-5.30
2019-01-24T17:29:18.158Z,-5.30
2019-01-24T17:31:48.846Z,-5.20
2019-01-24T17:34:19.402Z,-5.20
2019-01-24T17:36:50.038Z,-5.30
2019-01-24T17:39:20.701Z,-5.30
2019-01-24T17:41:51.712Z,-5.20
2019-01-24T17:44:42.854Z,-5.20
2019-01-24T17:47:13.768Z,-5.20
2019-01-24T17:49:44.444Z,-5.20
2019-01-24T17:52:15.299Z,-5.30
2019-01-24T17:54:46.212Z,-5.30
2019-01-24T17:57:17.240Z,-5.30
2019-01-24T17:59:47.974Z,-5.40
2019-01-24T18:02:18.685Z,-5.40
2019-01-24T18:04:49.647Z,-5.30
2019-01-24T18:07:20.400Z,-5.40
2019-01-24T18:09:51.137Z,-5.30
2019-01-24T18:12:22.438Z,-5.30
2019-01-24T18:14:53.026Z,-5.30
2019-01-24T18:17:23.673Z,-5.40
2019-01-24T18:19:54.535Z,-5.30
2019-01-24T18:22:25.135Z,-5.30
2019-01-24T18:24:57.124Z,-5.30
2019-01-24T18:27:28.153Z,-5.20
2019-01-24T18:29:58.831Z,-5.30
2019-01-24T18:32:29.989Z,-5.30
2019-01-24T18:35:00.745Z,-5.40
2019-01-24T18:37:31.847Z,-5.40
2019-01-24T18:40:02.526Z,-5.40
2019-01-24T18:42:33.407Z,-5.40
2019-01-24T18:45:04.557Z,-5.40
2019-01-24T18:47:35.183Z,-5.40
2019-01-24T18:50:07.553Z,-5.40
2019-01-24T18:52:38.624Z,-5.50
2019-01-24T18:55:10.729Z,-5.40
2019-01-24T18:57:41.633Z,-5.40
2019-01-24T19:00:19.577Z,-5.40
2019-01-24T19:02:50.704Z,-5.40
2019-01-24T19:05:21.802Z,-5.40
2019-01-24T19:07:52.999Z,-5.50
2019-01-24T19:10:23.787Z,-5.40
2019-01-24T19:12:54.876Z,-5.40
2019-01-24T19:15:26.783Z,-5.40
2019-01-24T19:17:58.176Z,-5.40
2019-01-24T19:20:29.572Z,-5.40
2019-01-24T19:23:00.648Z,-5.50
2019-01-24T19:25:31.570Z,-5.50
2019-01-24T19:28:02.612Z,-5.40
2019-01-24T19:30:33.681Z,-5.40
2019-01-24T19:33:06.691Z,-5.50
2019-01-24T19:35:37.744Z,-5.40
2019-01-24T19:38:08.910Z,-5.50
2019-01-24T19:40:40.356Z,-5.50
2019-01-24T19:43:11.043Z,-5.60
2019-01-24T19:45:44.084Z,-5.60
2019-01-24T19:48:14.842Z,-5.60
2019-01-24T19:50:45.856Z,-5.60
2019-01-24T19:53:16.698Z,-5.50
2019-01-24T19:55:47.425Z,-5.50
2019-01-24T19:58:18.222Z,-5.60
2019-01-24T20:00:49.148Z,-5.50
2019-01-24T20:03:20.193Z,-5.50
2019-01-24T20:05:51.070Z,-5.50
2019-01-24T20:08:21.963Z,-5.60
2019-01-24T20:10:52.892Z,-5.50
2019-01-24T20:13:23.364Z,-5.50
2019-01-24T20:15:54.086Z,-5.60
2019-01-24T20:18:24.957Z,-5.50
2019-01-24T20:20:55.597Z,-5.40
2019-01-24T20:23:26.566Z,-5.40
2019-01-24T20:25:57.529Z,-5.50
2019-01-24T20:28:28.381Z,-5.50
2019-01-24T20:30:59.274Z,-5.50
2019-01-24T20:33:30.096Z,-5.50
2019-01-24T20:36:01.978Z,-5.60
2019-01-24T20:38:33.014Z,-5.60
2019-01-24T20:41:04.999Z,-5.60
2019-01-24T20:43:36.238Z,-5.50
2019-01-24T20:46:07.415Z,-5.60
2019-01-24T20:48:38.307Z,-5.60
2019-01-24T20:51:09.196Z,-5.60
2019-01-24T20:53:39.873Z,-5.50
2019-01-24T20:56:10.659Z,-5.50
2019-01-24T20:58:41.385Z,-5.40
2019-01-24T21:01:12.112Z,-5.40
2019-01-24T21:03:43.068Z,-5.50
2019-01-24T21:06:14.023Z,-5.40
2019-01-24T21:08:45.430Z,-5.40
2019-01-24T21:11:16.573Z,-5.40
2019-01-24T21:13:47.512Z,-5.30
2019-01-24T21:16:18.544Z,-5.20
2019-01-24T21:18:49.386Z,-5.20
2019-01-24T21:21:20.806Z,-5.20
2019-01-24T21:23:51.540Z,-5.20
2019-01-24T21:26:22.351Z,-5.30
2019-01-24T21:28:53.216Z,-5.30
2019-01-24T21:31:24.174Z,-5.30
2019-01-24T21:33:54.937Z,-5.30
2019-01-24T21:36:25.458Z,-5.40
2019-01-24T21:38:56.638Z,-5.40
2019-01-24T21:41:27.388Z,-5.50
2019-01-24T21:43:58.157Z,-5.50
2019-01-24T21:46:28.913Z,-5.50
2019-01-24T21:48:59.775Z,-5.60
2019-01-24T21:51:31.023Z,-5.60
2019-01-24T21:54:01.732Z,-5.60
2019-01-24T21:56:32.548Z,-5.50
2019-01-24T21:59:03.394Z,-5.60
2019-01-24T22:01:34.048Z,-5.50
2019-01-24T22:04:04.983Z,-5.50
2019-01-24T22:06:35.642Z,-5.60
2019-01-24T22:09:10.090Z,-5.60
2019-01-24T22:11:41.074Z,-5.50
2019-01-24T22:14:11.687Z,-5.60
2019-01-24T22:16:42.522Z,-5.50
2019-01-24T22:19:13.173Z,-5.60
2019-01-24T22:21:43.879Z,-5.60
2019-01-24T22:24:14.595Z,-5.60
2019-01-24T22:26:45.419Z,-5.60
2019-01-24T22:29:16.183Z,-5.50
2019-01-24T22:31:47.061Z,-5.60
2019-01-24T22:34:18.513Z,-5.50
2019-01-24T22:36:49.443Z,-5.60
2019-01-24T22:39:20.040Z,-5.60
2019-01-24T22:41:50.881Z,-5.60
2019-01-24T22:44:21.751Z,-5.60
2019-01-24T22:46:52.476Z,-5.60
2019-01-24T22:49:23.010Z,-5.60
2019-01-24T22:51:53.539Z,-5.60
2019-01-24T22:54:24.430Z,-5.60
2019-01-24T22:56:55.054Z,-5.60
2019-01-24T22:59:26.170Z,-5.60
2019-01-24T23:02:16.531Z,-5.60
2019-01-24T23:04:47.100Z,-5.60
2019-01-24T23:07:18.199Z,-5.50
2019-01-24T23:09:50.059Z,-5.60
2019-01-24T23:12:20.540Z,-5.50
2019-01-24T23:14:51.115Z,-5.50
2019-01-24T23:17:22.031Z,-5.60
2019-01-24T23:19:52.690Z,-5.50
2019-01-24T23:22:23.559Z,-5.50
2019-01-24T23:24:54.491Z,-5.50
2019-01-24T23:27:25.608Z,-5.50
2019-01-24T23:29:56.601Z,-5.50
2019-01-24T23:32:28.186Z,-5.40
2019-01-24T23:34:58.771Z,-5.40
2019-01-24T23:37:30.387Z,-5.40
2019-01-24T23:40:00.978Z,-5.40
2019-01-24T23:42:31.979Z,-5.40
2019-01-24T23:45:02.783Z,-5.40
2019-01-24T23:47:34.551Z,-5.50
2019-01-24T23:50:05.992Z,-5.40
2019-01-24T23:52:37.109Z,-5.50
2019-01-24T23:55:07.566Z,-5.50
2019-01-24T23:57:39.467Z,-5.40
